Time;durP1;ratioP1;P1;durP2;ratioP2;P2;SDS_P1;SDS_P2;PMS_P1;PMS_P2;Temp;Humidity;BMP_temperature;BMP_pressure;BME280_temperature;BME280_humidity;BME280_pressure;Samples;Min_cycle;Max_cycle;Signal;HPM_P1;HPM_P2
2021/12/23 00:00:02;;;;;;;4.95;2.85;;;19.10;41.70;;;;;;5052180;28;20036;-86
2021/12/23 00:02:28;;;;;;;3.95;2.90;;;19.10;41.70;;;;;;5052039;28;20020;-86
2021/12/23 00:04:54;;;;;;;3.53;2.88;;;19.10;41.80;;;;;;5051943;28;20040;-87
2021/12/23 00:07:19;;;;;;;3.85;2.53;;;19.00;41.70;;;;;;5051779;28;20104;-87
2021/12/23 00:12:14;;;;;;;4.88;2.63;;;19.00;41.90;;;;;;5051789;28;20481;-87
2021/12/23 00:14:39;;;;;;;3.35;2.78;;;19.00;41.90;;;;;;5051847;28;20078;-86
2021/12/23 00:25:14;;;;;;;3.90;3.10;;;18.80;42.00;;;;;;5052181;28;20090;-87
2021/12/23 00:27:40;;;;;;;4.72;2.90;;;18.80;42.10;;;;;;5051685;28;20029;-85
2021/12/23 00:30:06;;;;;;;5.28;2.80;;;18.80;42.10;;;;;;5051775;28;20466;-86
2021/12/23 00:32:32;;;;;;;4.53;2.92;;;18.70;42.10;;;;;;5051851;28;20025;-85
2021/12/23 00:34:58;;;;;;;4.40;2.85;;;18.70;42.20;;;;;;5051463;28;20450;-86
2021/12/23 00:37:23;;;;;;;2.88;2.60;;;18.70;42.10;;;;;;5051734;28;20029;-86
2021/12/23 00:39:49;;;;;;;4.43;2.95;;;18.70;42.10;;;;;;5050132;28;20035;-85
2021/12/23 00:42:15;;;;;;;4.32;2.90;;;18.70;42.10;;;;;;5051607;28;20078;-85
2021/12/23 00:44:45;;;;;;;3.90;2.53;;;18.60;42.10;;;;;;5051637;28;20104;-86
2021/12/23 00:47:11;;;;;;;5.22;3.08;;;18.60;42.10;;;;;;5051607;28;20075;-87
2021/12/23 00:49:37;;;;;;;3.42;2.63;;;18.60;42.10;;;;;;5051316;28;20057;-86
2021/12/23 00:52:05;;;;;;;4.35;2.80;;;18.60;42.20;;;;;;5052213;28;20032;-85
2021/12/23 00:54:30;;;;;;;4.63;2.85;;;18.50;42.20;;;;;;5055527;28;20017;-87
2021/12/23 00:56:56;;;;;;;3.88;2.80;;;18.50;42.20;;;;;;5055225;28;20025;-85
2021/12/23 00:59:22;;;;;;;3.13;2.75;;;18.50;42.30;;;;;;5055167;28;20017;-87
2021/12/23 01:01:48;;;;;;;3.55;2.80;;;18.50;42.30;;;;;;5055171;28;20470;-86
2021/12/23 01:04:14;;;;;;;3.42;2.90;;;18.40;42.40;;;;;;5055214;28;20092;-85
2021/12/23 01:06:40;;;;;;;2.63;2.42;;;18.40;42.30;;;;;;5055242;28;20039;-86
2021/12/23 01:09:07;;;;;;;6.10;2.65;;;18.40;42.40;;;;;;5054897;28;20143;-87
2021/12/23 01:11:32;;;;;;;4.18;2.72;;;18.40;42.40;;;;;;5055037;28;20032;-85
2021/12/23 01:14:14;;;;;;;4.40;2.80;;;18.30;42.40;;;;;;5054851;28;20025;-85
2021/12/23 01:19:36;;;;;;;3.83;2.83;;;18.30;42.50;;;;;;5053937;28;20067;-87
2021/12/23 01:22:01;;;;;;;;;;;18.20;42.50;;;;;;5055141;28;20064;-86
2021/12/23 01:24:31;;;;;;;3.33;2.80;;;18.20;42.60;;;;;;5054814;28;19970;-86
2021/12/23 01:26:56;;;;;;;3.75;3.20;;;18.20;42.80;;;;;;5054881;28;20025;-85
2021/12/23 01:29:22;;;;;;;3.30;3.00;;;18.10;42.70;;;;;;5054640;28;20031;-87
2021/12/23 01:31:47;;;;;;;3.58;3.05;;;18.10;42.70;;;;;;5054576;28;20486;-86
2021/12/23 01:34:13;;;;;;;5.38;2.83;;;18.10;42.80;;;;;;5054601;28;20044;-85
2021/12/23 01:36:38;;;;;;;4.00;2.60;;;18.10;42.80;;;;;;5054494;28;20025;-86
2021/12/23 01:39:04;;;;;;;4.00;3.00;;;18.10;42.90;;;;;;5054020;28;20120;-86
2021/12/23 01:41:30;;;;;;;3.80;3.00;;;18.00;42.80;;;;;;5054370;28;20029;-86
2021/12/23 01:43:55;;;;;;;2.90;2.60;;;18.00;42.90;;;;;;5054481;28;20478;-87
2021/12/23 01:46:22;;;;;;;3.60;2.78;;;18.00;42.80;;;;;;5054511;28;20033;-85
2021/12/23 01:48:48;;;;;;;3.40;2.95;;;18.00;42.80;;;;;;5054147;28;20071;-85
2021/12/23 01:51:14;;;;;;;3.58;2.80;;;17.90;42.80;;;;;;5054164;28;20021;-86
2021/12/23 01:53:40;;;;;;;4.15;3.03;;;17.90;42.90;;;;;;5054178;28;20446;-85
2021/12/23 01:56:06;;;;;;;3.50;2.90;;;17.90;43.00;;;;;;5054048;28;20033;-85
2021/12/23 01:58:36;;;;;;;3.47;3.03;;;17.90;42.90;;;;;;5054314;28;20028;-86
2021/12/23 02:01:02;;;;;;;4.03;3.10;;;17.80;43.00;;;;;;5053917;28;20498;-85
2021/12/23 02:03:27;;;;;;;3.05;2.75;;;17.80;43.00;;;;;;5053592;28;20032;-87
2021/12/23 02:05:53;;;;;;;3.25;2.55;;;17.80;43.00;;;;;;5052689;28;20029;-85
2021/12/23 02:08:18;;;;;;;3.42;2.72;;;17.80;43.10;;;;;;5054037;28;20086;-85
2021/12/23 02:10:44;;;;;;;3.78;2.72;;;17.70;43.00;;;;;;5053832;28;20382;-85
2021/12/23 02:13:10;;;;;;;3.15;2.50;;;17.70;43.10;;;;;;5053764;28;20021;-85
2021/12/23 02:15:36;;;;;;;3.42;2.88;;;17.70;43.10;;;;;;5053990;28;20032;-86
2021/12/23 02:18:01;;;;;;;3.47;2.92;;;17.70;43.20;;;;;;5053530;28;20032;-85
2021/12/23 02:20:33;;;;;;;3.17;2.88;;;17.70;43.20;;;;;;5053797;28;20029;-85
2021/12/23 02:22:59;;;;;;;3.45;2.95;;;17.70;43.20;;;;;;5053856;28;20023;-85
2021/12/23 02:25:25;;;;;;;3.00;2.70;;;17.60;43.20;;;;;;5053627;28;20029;-86
2021/12/23 02:27:53;;;;;;;4.05;3.08;;;17.60;43.20;;;;;;5053542;28;20079;-85
2021/12/23 02:30:27;;;;;;;3.22;2.90;;;17.60;43.30;;;;;;5053675;28;20025;-85
2021/12/23 02:32:53;;;;;;;;;;;17.60;43.30;;;;;;5053752;28;20047;-87
2021/12/23 02:35:22;;;;;;;3.20;2.85;;;17.50;43.30;;;;;;5053653;28;19995;-86
2021/12/23 02:37:48;;;;;;;3.47;2.80;;;17.50;43.40;;;;;;5053315;28;20047;-86
2021/12/23 02:40:30;;;;;;;3.03;2.60;;;17.50;43.50;;;;;;5053422;28;20424;-85
2021/12/23 02:43:06;;;;;;;2.80;2.58;;;17.50;43.40;;;;;;5053454;28;20056;-87
2021/12/23 02:45:32;;;;;;;5.28;2.92;;;17.40;43.40;;;;;;5053234;28;20017;-86
2021/12/23 02:47:57;;;;;;;3.90;2.67;;;17.40;43.40;;;;;;5053087;28;20064;-85
2021/12/23 02:50:23;;;;;;;2.97;2.63;;;17.40;43.50;;;;;;5053258;28;20428;-86
2021/12/23 02:52:48;;;;;;;3.67;2.70;;;17.30;43.50;;;;;;5052825;28;20120;-85
2021/12/23 02:55:18;;;;;;;3.83;2.92;;;17.30;43.50;;;;;;5053046;28;20537;-85
2021/12/23 02:57:43;;;;;;;3.20;2.70;;;17.40;43.50;;;;;;5052973;28;20535;-86
2021/12/23 03:00:10;;;;;;;3.50;3.00;;;17.30;43.50;;;;;;5052928;28;20033;-85
2021/12/23 03:02:40;;;;;;;3.67;2.83;;;17.30;43.50;;;;;;5053058;28;20120;-86
2021/12/23 03:05:07;;;;;;;3.85;2.90;;;17.30;43.50;;;;;;5052993;28;20090;-86
2021/12/23 03:07:33;;;;;;;3.58;2.78;;;17.30;43.60;;;;;;5052956;28;20029;-85
2021/12/23 03:09:58;;;;;;;3.42;2.88;;;17.20;43.60;;;;;;5052836;28;20040;-85
2021/12/23 03:12:24;;;;;;;5.13;3.00;;;17.20;44.20;;;;;;5052642;28;20378;-85
2021/12/23 03:14:49;;;;;;;3.75;3.30;;;17.20;44.00;;;;;;5052321;28;20154;-85
2021/12/23 03:17:15;;;;;;;4.53;3.30;;;17.20;43.80;;;;;;5052049;28;20079;-85
2021/12/23 03:19:41;;;;;;;3.88;2.90;;;17.10;43.60;;;;;;5052869;28;20466;-86
2021/12/23 03:22:06;;;;;;;3.67;3.28;;;17.10;43.60;;;;;;5052576;28;20096;-85
2021/12/23 03:24:32;;;;;;;3.28;2.97;;;17.10;43.70;;;;;;5052657;28;20036;-86
2021/12/23 03:26:57;;;;;;;3.35;2.70;;;17.10;43.70;;;;;;5052362;28;20490;-85
2021/12/23 03:29:23;;;;;;;3.47;3.05;;;17.00;44.70;;;;;;5052467;28;20104;-84
2021/12/23 03:31:49;;;;;;;7.25;2.95;;;17.00;43.70;;;;;;5051161;28;20478;-85
2021/12/23 03:34:14;;;;;;;4.45;3.00;;;17.00;43.70;;;;;;5052271;28;20029;-85
2021/12/23 03:36:40;;;;;;;3.50;2.95;;;17.00;43.80;;;;;;5052406;28;20029;-85
2021/12/23 03:39:06;;;;;;;3.10;2.80;;;17.00;43.80;;;;;;5052253;28;20029;-85
2021/12/23 03:41:32;;;;;;;4.32;3.15;;;16.90;43.80;;;;;;5052370;28;20052;-84
2021/12/23 03:43:57;;;;;;;3.28;2.97;;;16.90;43.80;;;;;;5052320;28;20364;-85
2021/12/23 03:46:23;;;;;;;3.53;3.00;;;16.90;43.90;;;;;;5052155;28;20092;-85
2021/12/23 03:48:50;;;;;;;4.03;3.30;;;16.90;43.90;;;;;;5052038;28;20457;-85
2021/12/23 03:51:15;;;;;;;4.85;2.88;;;16.90;44.00;;;;;;5051960;28;20486;-84
2021/12/23 03:53:41;;;;;;;3.10;2.80;;;16.90;44.00;;;;;;5052077;28;20036;-85
2021/12/23 03:56:06;;;;;;;4.28;3.15;;;16.80;43.90;;;;;;5051905;28;20033;-85
2021/12/23 03:58:32;;;;;;;3.17;2.88;;;16.80;44.00;;;;;;5052226;28;20028;-85
2021/12/23 04:00:57;;;;;;;3.50;3.20;;;16.80;44.10;;;;;;5052025;28;20475;-85
2021/12/23 04:03:23;;;;;;;3.90;3.17;;;16.80;44.10;;;;;;5051893;28;20021;-85
2021/12/23 04:05:49;;;;;;;4.68;3.35;;;16.70;44.10;;;;;;5052051;28;20036;-84
2021/12/23 04:08:14;;;;;;;5.45;3.60;;;16.70;44.10;;;;;;5051834;28;20053;-87
2021/12/23 04:10:40;;;;;;;5.45;4.38;;;16.70;43.80;;;;;;5051984;28;20472;-85
2021/12/23 04:13:06;;;;;;;4.88;4.38;;;16.60;43.60;;;;;;5051686;28;20029;-86
2021/12/23 04:15:33;;;;;;;7.03;4.60;;;16.60;43.30;;;;;;5051878;28;20405;-87
2021/12/23 04:17:59;;;;;;;4.85;4.35;;;16.60;43.30;;;;;;5051547;28;20036;-86
2021/12/23 04:20:32;;;;;;;6.18;4.30;;;16.60;43.30;;;;;;5051639;28;20021;-87
2021/12/23 04:22:58;;;;;;;4.78;4.07;;;16.60;43.30;;;;;;5051924;28;20044;-85
2021/12/23 04:25:26;;;;;;;5.00;4.13;;;16.50;43.30;;;;;;5050283;28;20029;-86
2021/12/23 04:27:57;;;;;;;5.13;4.00;;;16.50;43.30;;;;;;5054201;28;20094;-86
2021/12/23 04:30:23;;;;;;;4.30;3.85;;;16.50;43.30;;;;;;5055614;28;20075;-87
2021/12/23 04:32:50;;;;;;;5.13;3.97;;;16.50;43.40;;;;;;5054550;28;20071;-86
2021/12/23 04:35:15;;;;;;;6.32;4.00;;;16.50;43.50;;;;;;5055705;28;20021;-86
2021/12/23 04:37:41;;;;;;;5.05;3.80;;;16.50;43.50;;;;;;5055761;28;20082;-86
2021/12/23 04:40:09;;;;;;;5.00;3.88;;;16.40;43.40;;;;;;5055640;28;20027;-86
2021/12/23 04:42:35;;;;;;;4.43;3.42;;;16.40;43.50;;;;;;5055501;28;20017;-86
2021/12/23 04:45:01;;;;;;;4.07;3.40;;;16.40;43.60;;;;;;5055730;28;20107;-86
2021/12/23 04:47:26;;;;;;;6.05;4.03;;;16.40;43.70;;;;;;5055387;28;20024;-86
2021/12/23 04:49:52;;;;;;;4.35;3.45;;;16.40;43.70;;;;;;5055456;28;20060;-86
2021/12/23 04:52:18;;;;;;;4.05;3.65;;;16.30;43.70;;;;;;5055251;28;20033;-86
2021/12/23 04:54:43;;;;;;;5.43;3.70;;;16.40;43.80;;;;;;5055291;28;20470;-85
2021/12/23 04:57:09;;;;;;;4.25;3.40;;;16.30;43.80;;;;;;5054120;28;20021;-86
2021/12/23 04:59:34;;;;;;;4.78;3.70;;;16.30;43.90;;;;;;5055063;28;20017;-86
2021/12/23 05:02:01;;;;;;;3.75;3.15;;;16.30;43.90;;;;;;5055421;28;20025;-86
2021/12/23 05:04:26;;;;;;;4.18;3.47;;;16.30;44.00;;;;;;5055291;28;20100;-86
2021/12/23 05:06:52;;;;;;;3.97;3.33;;;16.20;43.90;;;;;;5055038;28;20163;-87
2021/12/23 05:09:17;;;;;;;3.90;3.50;;;16.20;44.00;;;;;;5055120;28;20027;-87
2021/12/23 05:11:44;;;;;;;6.00;3.72;;;16.20;44.10;;;;;;5054921;28;20095;-87
2021/12/23 05:14:10;;;;;;;4.75;3.33;;;16.20;44.00;;;;;;5054988;28;20029;-86
2021/12/23 05:16:37;;;;;;;5.15;3.83;;;16.20;44.10;;;;;;5054907;28;20025;-87
2021/12/23 05:19:02;;;;;;;4.65;3.42;;;16.20;44.20;;;;;;5054777;28;20378;-86
2021/12/23 05:21:28;;;;;;;3.63;3.30;;;16.20;44.20;;;;;;5055027;28;20025;-86
2021/12/23 05:23:54;;;;;;;3.90;3.03;;;16.10;44.20;;;;;;5054634;28;20090;-87
2021/12/23 05:26:19;;;;;;;3.58;2.97;;;16.10;44.20;;;;;;5054721;28;20035;-87
2021/12/23 05:28:45;;;;;;;3.75;3.22;;;16.10;44.30;;;;;;5054585;28;20052;-85
2021/12/23 05:31:10;;;;;;;4.03;3.53;;;16.10;44.30;;;;;;5054781;28;20037;-86
2021/12/23 05:33:36;;;;;;;3.80;3.10;;;16.00;44.30;;;;;;5054547;28;20052;-86
2021/12/23 05:36:02;;;;;;;3.97;3.35;;;16.10;44.40;;;;;;5054512;28;20032;-87
2021/12/23 05:38:27;;;;;;;4.53;3.60;;;16.00;44.40;;;;;;5052373;28;20382;-86
2021/12/23 05:40:53;;;;;;;3.80;3.40;;;16.00;44.40;;;;;;5054278;28;20021;-87
2021/12/23 05:43:19;;;;;;;3.97;3.25;;;16.00;44.40;;;;;;5054510;28;20078;-86
2021/12/23 05:45:45;;;;;;;4.28;3.80;;;16.00;44.40;;;;;;5054406;28;20036;-86
2021/12/23 05:48:12;;;;;;;4.10;3.40;;;16.00;44.50;;;;;;5054052;28;20041;-86
2021/12/23 05:50:37;;;;;;;3.80;3.38;;;15.90;44.50;;;;;;5054414;28;20179;-86
2021/12/23 05:53:03;;;;;;;3.70;3.35;;;15.90;44.50;;;;;;5052800;28;20409;-85
2021/12/23 05:55:29;;;;;;;3.42;3.13;;;15.90;44.50;;;;;;5054471;28;20386;-86
2021/12/23 05:57:55;;;;;;;4.05;3.33;;;15.90;44.60;;;;;;5054163;28;20493;-87
2021/12/23 06:00:23;;;;;;;3.88;3.47;;;15.90;44.60;;;;;;5054215;28;20104;-86
2021/12/23 06:02:50;;;;;;;3.72;3.03;;;15.90;44.70;;;;;;5054170;28;20032;-85
2021/12/23 06:05:16;;;;;;;3.45;3.03;;;15.80;44.70;;;;;;5054072;28;20071;-86
2021/12/23 06:07:42;;;;;;;3.30;3.00;;;15.80;44.70;;;;;;5054016;28;20083;-86
2021/12/23 06:10:08;;;;;;;3.65;3.13;;;15.80;44.90;;;;;;5053805;28;20029;-85
2021/12/23 06:12:34;;;;;;;3.40;3.00;;;15.80;44.90;;;;;;5053764;28;20033;-85
2021/12/23 06:14:59;;;;;;;3.92;3.03;;;15.80;44.90;;;;;;5054057;28;20048;-87
2021/12/23 06:17:25;;;;;;;4.97;3.15;;;15.80;45.00;;;;;;5053860;28;20791;-86
2021/12/23 06:19:50;;;;;;;4.05;3.40;;;15.80;45.00;;;;;;5052583;28;20032;-86
2021/12/23 06:22:18;;;;;;;3.40;3.05;;;15.80;44.90;;;;;;5053537;28;20032;-86
2021/12/23 06:24:46;;;;;;;4.00;3.33;;;15.80;44.90;;;;;;5053754;28;20021;-86
2021/12/23 06:27:13;;;;;;;4.40;3.30;;;15.90;44.90;;;;;;5053657;28;20027;-86
2021/12/23 06:29:38;;;;;;;4.30;3.30;;;15.90;44.80;;;;;;5053643;28;20059;-87
2021/12/23 06:32:04;;;;;;;4.20;3.42;;;15.90;44.70;;;;;;5053636;28;20470;-86
2021/12/23 06:34:30;;;;;;;3.95;3.15;;;15.90;44.70;;;;;;5053529;28;20125;-85
2021/12/23 06:36:56;;;;;;;4.60;3.60;;;16.00;44.70;;;;;;5053654;28;20446;-86
2021/12/23 06:39:21;;;;;;;3.67;3.20;;;16.00;44.60;;;;;;5053263;28;20104;-86
2021/12/23 06:41:47;;;;;;;4.25;3.33;;;16.10;44.70;;;;;;5053431;28;20049;-85
2021/12/23 06:44:12;;;;;;;5.70;3.30;;;16.10;44.70;;;;;;5052266;28;20433;-86
2021/12/23 06:46:38;;;;;;;3.53;3.20;;;16.20;44.60;;;;;;5053135;28;20064;-86
2021/12/23 06:49:04;;;;;;;3.70;3.30;;;16.30;44.60;;;;;;5052914;28;20084;-86
2021/12/23 06:51:30;;;;;;;4.63;3.40;;;16.40;44.60;;;;;;5052981;28;20416;-86
2021/12/23 06:54:01;;;;;;;3.80;3.30;;;16.50;44.40;;;;;;5053127;28;20021;-86
2021/12/23 06:56:27;;;;;;;4.18;2.90;;;16.60;44.20;;;;;;5053214;28;20030;-86
2021/12/23 06:58:53;;;;;;;3.80;3.13;;;16.80;45.10;;;;;;5053032;28;20163;-86
2021/12/23 07:01:21;;;;;;;3.63;3.13;;;16.90;44.00;;;;;;5053109;28;20096;-86
2021/12/23 07:06:23;;;;;;;5.30;3.17;;;17.20;43.40;;;;;;5052915;28;20520;-87
2021/12/23 07:08:50;;;;;;;3.78;3.20;;;17.50;43.40;;;;;;5052868;28;20078;-87
2021/12/23 07:11:15;;;;;;;4.40;3.08;;;17.60;43.10;;;;;;5052603;28;20033;-88
2021/12/23 07:13:41;;;;;;;3.75;2.95;;;17.80;42.80;;;;;;5052665;28;20711;-86
2021/12/23 07:16:07;;;;;;;3.47;3.10;;;18.00;42.50;;;;;;5052742;28;20032;-86
2021/12/23 07:18:32;;;;;;;4.35;3.25;;;18.20;42.20;;;;;;5052675;28;20489;-87
2021/12/23 07:20:58;;;;;;;5.57;3.10;;;18.50;42.10;;;;;;5052582;28;20509;-87
2021/12/23 07:23:24;;;;;;;3.88;2.60;;;18.70;41.70;;;;;;5051106;28;20024;-86
2021/12/23 07:25:50;;;;;;;3.10;2.80;;;18.90;41.50;;;;;;5052044;28;20017;-87
2021/12/23 07:28:15;;;;;;;3.47;2.53;;;19.10;41.30;;;;;;5052633;28;20017;-86
2021/12/23 07:30:41;;;;;;;3.22;2.78;;;19.20;41.00;;;;;;5051077;28;20135;-87
2021/12/23 07:33:07;;;;;;;5.00;2.63;;;19.40;40.80;;;;;;5051172;28;20066;-88
2021/12/23 07:35:32;;;;;;;3.47;2.60;;;19.60;40.60;;;;;;5052524;28;20033;-86
2021/12/23 07:38:00;;;;;;;4.68;2.80;;;19.70;40.40;;;;;;5052249;28;20021;-88
2021/12/23 07:40:26;;;;;;;4.15;3.03;;;19.90;40.20;;;;;;5052546;28;20021;-87
2021/12/23 07:42:57;;;;;;;2.60;2.40;;;20.00;40.10;;;;;;5052432;28;20020;-86
2021/12/23 07:45:29;;;;;;;3.13;2.70;;;20.10;39.90;;;;;;5052331;28;20033;-87
2021/12/23 07:47:55;;;;;;;4.53;2.70;;;20.20;40.80;;;;;;5052014;28;20048;-86
2021/12/23 07:50:21;;;;;;;3.22;2.58;;;20.30;39.70;;;;;;5051055;28;20025;-87
2021/12/23 07:52:46;;;;;;;4.03;2.60;;;20.40;39.60;;;;;;5050732;28;20059;-87
2021/12/23 07:55:13;;;;;;;4.63;2.90;;;20.40;39.50;;;;;;5051994;28;20474;-87
2021/12/23 07:57:39;;;;;;;4.68;2.45;;;20.50;39.50;;;;;;5051773;28;20024;-87
2021/12/23 08:00:06;;;;;;;3.60;2.70;;;20.50;39.40;;;;;;5052064;28;20029;-87
2021/12/23 08:02:31;;;;;;;4.22;2.75;;;20.60;39.40;;;;;;5051685;28;20029;-87
2021/12/23 08:04:57;;;;;;;3.17;2.70;;;20.60;39.40;;;;;;5051926;28;20084;-86
2021/12/23 08:07:23;;;;;;;3.95;2.92;;;20.60;39.40;;;;;;5052071;28;20117;-87
2021/12/23 08:09:48;;;;;;;3.55;2.55;;;20.60;39.40;;;;;;5050581;28;20458;-87
2021/12/23 08:12:14;;;;;;;3.03;2.50;;;20.70;39.50;;;;;;5051935;28;20025;-87
2021/12/23 08:14:39;;;;;;;2.80;2.40;;;20.70;39.40;;;;;;5051947;28;20025;-87
2021/12/23 08:17:05;;;;;;;3.03;2.33;;;20.70;39.40;;;;;;5051861;28;20044;-87
2021/12/23 08:19:31;;;;;;;4.75;2.55;;;20.60;39.40;;;;;;5052089;28;20099;-88
2021/12/23 08:21:56;;;;;;;3.40;2.50;;;20.70;39.50;;;;;;5051816;28;20021;-86
2021/12/23 08:24:22;;;;;;;3.30;2.63;;;20.70;39.50;;;;;;5051920;28;20033;-87
2021/12/23 08:26:52;;;;;;;3.00;2.65;;;20.70;39.50;;;;;;5051871;28;20029;-88
2021/12/23 08:29:19;;;;;;;2.95;2.53;;;20.60;39.50;;;;;;5051972;28;20036;-86
2021/12/23 08:31:46;;;;;;;3.38;2.63;;;20.60;39.60;;;;;;5051724;28;20029;-87
2021/12/23 08:34:12;;;;;;;4.75;2.70;;;20.60;39.60;;;;;;5051790;28;20025;-86
2021/12/23 08:36:38;;;;;;;3.30;2.63;;;20.60;39.70;;;;;;5051900;28;20378;-86
2021/12/23 08:39:03;;;;;;;2.50;2.30;;;20.60;39.70;;;;;;5051598;28;20017;-87
2021/12/23 08:41:29;;;;;;;5.50;2.70;;;20.60;39.80;;;;;;5050432;28;20082;-86
2021/12/23 08:43:54;;;;;;;3.13;2.63;;;20.50;39.80;;;;;;5051670;28;20025;-88
2021/12/23 08:46:22;;;;;;;3.55;2.42;;;20.50;39.80;;;;;;5051522;28;20025;-88
2021/12/23 08:48:47;;;;;;;2.80;2.47;;;20.50;39.90;;;;;;5051510;28;20049;-88
2021/12/23 08:51:13;;;;;;;3.40;2.47;;;20.50;40.00;;;;;;5050215;28;20478;-86
2021/12/23 08:53:39;;;;;;;2.97;2.55;;;20.40;39.90;;;;;;5050314;28;20033;-88
2021/12/23 08:56:08;;;;;;;2.53;2.33;;;20.40;40.00;;;;;;5051478;28;20025;-88
2021/12/23 08:58:34;;;;;;;4.22;2.70;;;20.40;40.00;;;;;;5050389;28;20040;-87
2021/12/23 09:01:00;;;;;;;3.58;2.58;;;20.40;40.10;;;;;;5051516;28;20017;-87
2021/12/23 09:03:26;;;;;;;4.05;2.50;;;20.40;40.20;;;;;;5051565;28;20079;-88
2021/12/23 09:05:51;;;;;;;2.63;2.42;;;20.40;40.20;;;;;;5050453;28;20025;-87
2021/12/23 09:08:17;;;;;;;2.83;2.25;;;20.30;40.20;;;;;;5051292;28;20389;-87
2021/12/23 09:10:43;;;;;;;2.83;2.53;;;20.30;40.30;;;;;;5051409;28;20036;-86
2021/12/23 09:13:08;;;;;;;2.83;2.50;;;20.30;40.40;;;;;;5052324;28;20032;-87
2021/12/23 09:15:34;;;;;;;3.60;2.72;;;20.30;40.40;;;;;;5055212;28;20104;-88
2021/12/23 09:18:00;;;;;;;3.00;2.70;;;20.20;40.40;;;;;;5055546;28;20021;-86
2021/12/23 09:20:26;;;;;;;3.40;2.53;;;20.20;40.50;;;;;;5053817;28;20028;-88
2021/12/23 09:22:52;;;;;;;3.10;2.60;;;20.20;40.50;;;;;;5055091;28;20025;-87
2021/12/23 09:25:28;;;;;;;2.97;2.67;;;20.20;40.60;;;;;;5054819;28;20423;-88
2021/12/23 09:28:18;;;;;;;3.72;2.50;;;20.20;40.70;;;;;;5055640;28;20052;-88
2021/12/23 09:33:29;;;;;;;2.78;2.50;;;20.10;40.80;;;;;;5055056;28;20131;-87
2021/12/23 09:35:55;;;;;;;4.57;2.50;;;20.10;41.80;;;;;;5054837;28;20021;-87
2021/12/23 09:38:27;;;;;;;3.08;2.40;;;20.10;40.80;;;;;;5054725;28;20024;-88
2021/12/23 09:41:09;;;;;;;2.77;2.47;;;20.10;40.80;;;;;;5053442;28;20463;-87
2021/12/23 09:43:36;;;;;;;2.90;2.60;;;20.10;40.80;;;;;;5053452;28;20739;-87
2021/12/23 09:46:04;;;;;;;2.83;2.53;;;20.00;40.90;;;;;;5054561;28;20055;-87
2021/12/23 09:48:31;;;;;;;2.85;2.25;;;20.00;41.00;;;;;;5053025;28;20102;-88
2021/12/23 09:51:03;;;;;;;2.88;2.50;;;20.00;41.00;;;;;;5054571;28;20021;-87
2021/12/23 09:53:30;;;;;;;2.50;2.30;;;20.00;41.00;;;;;;5054398;28;20082;-87
2021/12/23 09:55:57;;;;;;;3.00;2.60;;;20.00;41.10;;;;;;5054415;28;20098;-86
2021/12/23 09:58:23;;;;;;;2.80;2.50;;;20.00;41.10;;;;;;5054093;28;20021;-87
2021/12/23 10:00:49;;;;;;;3.72;2.63;;;20.00;41.10;;;;;;5052980;28;20048;-87
2021/12/23 10:03:18;;;;;;;3.25;2.53;;;19.90;41.10;;;;;;5053044;28;20113;-87
2021/12/23 10:05:44;;;;;;;3.33;2.50;;;20.00;41.20;;;;;;5054237;28;20036;-88
2021/12/23 10:08:12;;;;;;;3.08;2.50;;;20.00;41.20;;;;;;5054162;28;20029;-85
2021/12/23 10:11:34;;;;;;;3.33;2.72;;;19.90;41.30;;;;;;5052634;28;20075;-88
2021/12/23 10:32:59;;;;;;;2.53;2.33;;;19.90;41.50;;;;;;5053526;28;20374;-88
2021/12/23 10:38:16;;;;;;;2.47;2.20;;;19.90;41.50;;;;;;5053697;28;20497;-88
2021/12/23 10:40:49;;;;;;;2.30;2.10;;;19.90;41.60;;;;;;5052446;28;20112;-87
2021/12/23 10:43:46;;;;;;;3.22;2.50;;;19.90;41.60;;;;;;5052312;28;20021;-88
2021/12/23 10:46:41;;;;;;;2.58;2.30;;;19.80;41.50;;;;;;5051719;28;20033;-88
2021/12/23 10:49:38;;;;;;;3.17;2.47;;;19.80;41.60;;;;;;5052950;28;20490;-88
2021/12/23 10:52:09;;;;;;;3.20;2.33;;;19.80;41.60;;;;;;5052279;28;20029;-89
2021/12/23 11:00:23;;;;;;;2.83;2.53;;;19.90;41.70;;;;;;5053486;28;20040;-88
2021/12/23 11:03:01;;;;;;;3.45;2.50;;;19.80;41.60;;;;;;5053145;28;20021;-89
2021/12/23 11:05:31;;;;;;;3.15;2.40;;;19.80;41.60;;;;;;5053225;28;20021;-89
2021/12/23 11:08:11;;;;;;;3.05;2.75;;;19.80;41.70;;;;;;5051927;28;20032;-88
2021/12/23 11:27:38;;;;;;;2.72;2.30;;;19.80;41.80;;;;;;5053755;28;20104;-88
2021/12/23 11:36:16;;;;;;;2.95;2.65;;;19.80;41.90;;;;;;5052459;28;20028;-87
2021/12/23 11:41:48;;;;;;;3.13;2.38;;;19.80;42.00;;;;;;5052710;28;20108;-87
2021/12/23 11:44:06;;;;;;;2.92;2.60;;;19.70;41.90;;;;;;5052318;28;20402;-87
2021/12/23 11:46:47;;;;;;;3.10;2.80;;;19.80;42.00;;;;;;5052259;28;20417;-86
2021/12/23 11:49:14;;;;;;;2.55;2.35;;;19.80;42.00;;;;;;5050898;28;20065;-87
2021/12/23 11:52:01;;;;;;;2.65;2.42;;;19.80;42.00;;;;;;5050878;28;20564;-86
2021/12/23 11:54:31;;;;;;;3.20;2.75;;;19.80;42.00;;;;;;5051495;28;20099;-87
2021/12/23 11:57:03;;;;;;;3.03;2.38;;;19.80;42.10;;;;;;5052162;28;20017;-88
2021/12/23 11:59:32;;;;;;;2.78;2.45;;;19.80;42.10;;;;;;5051153;28;20487;-88
2021/12/23 12:01:58;;;;;;;2.90;2.60;;;19.80;42.10;;;;;;5051887;28;20025;-87
2021/12/23 12:04:37;;;;;;;3.00;2.60;;;19.80;42.10;;;;;;5050972;28;20044;-87
2021/12/23 12:07:32;;;;;;;3.47;2.40;;;19.70;42.10;;;;;;5050823;28;20052;-87
2021/12/23 12:10:07;;;;;;;4.72;2.72;;;19.70;42.10;;;;;;5050724;28;20037;-87
2021/12/23 12:12:37;;;;;;;4.63;2.75;;;19.70;42.10;;;;;;5050820;28;20112;-91
2021/12/23 12:15:04;;;;;;;4.00;3.15;;;19.70;42.20;;;;;;5052654;28;20032;-90
2021/12/23 12:17:34;;;;;;;6.55;3.42;;;19.70;42.20;;;;;;5052455;28;20029;-89
2021/12/23 12:20:23;;;;;;;4.20;3.13;;;19.70;42.20;;;;;;5051508;28;20052;-89
2021/12/23 12:23:13;;;;;;;4.55;3.45;;;19.70;42.10;;;;;;5052482;28;20112;-91
2021/12/23 12:25:38;;;;;;;5.10;3.42;;;19.80;42.10;;;;;;5052181;28;20013;-91
2021/12/23 12:28:04;;;;;;;6.15;3.60;;;19.80;42.00;;;;;;5051318;28;20497;-89
2021/12/23 12:30:44;;;;;;;5.15;3.45;;;19.90;42.00;;;;;;5052539;28;20095;-89
2021/12/23 12:33:33;;;;;;;5.38;3.40;;;20.00;41.90;;;;;;5051155;28;20124;-89
2021/12/23 12:36:02;;;;;;;4.28;3.03;;;20.10;41.80;;;;;;5051190;28;20017;-89
2021/12/23 12:38:39;;;;;;;5.82;3.72;;;20.20;41.70;;;;;;5052276;28;20151;-90
2021/12/23 12:41:30;;;;;;;5.45;3.05;;;20.40;41.50;;;;;;5042016;28;20049;-89
2021/12/23 12:44:18;;;;;;;5.03;3.80;;;20.50;41.30;;;;;;5044790;28;20029;-90
2021/12/23 12:47:03;;;;;;;6.45;3.50;;;20.60;41.00;;;;;;5032087;28;20029;-90
2021/12/23 12:49:37;;;;;;;6.97;3.72;;;20.70;40.80;;;;;;5074204;28;20521;-91
2021/12/23 12:52:09;;;;;;;7.68;3.63;;;20.90;40.50;;;;;;5054903;28;20028;-91
2021/12/23 12:54:41;;;;;;;11.90;3.50;;;21.00;40.20;;;;;;5054945;28;20021;-91
2021/12/23 12:57:08;;;;;;;5.88;3.78;;;21.20;40.00;;;;;;5054825;28;20028;-91
2021/12/23 12:59:46;;;;;;;4.68;3.58;;;21.30;39.80;;;;;;5056096;28;20032;-91
2021/12/23 13:02:32;;;;;;;4.38;3.63;;;21.40;39.60;;;;;;5054897;28;20090;-91
2021/12/23 13:05:06;;;;;;;5.65;3.78;;;21.50;39.40;;;;;;5054939;28;20075;-91
2021/12/23 13:07:40;;;;;;;6.80;3.75;;;21.60;39.30;;;;;;5055877;28;20018;-91
2021/12/23 13:10:15;;;;;;;4.75;3.45;;;21.70;39.20;;;;;;5056206;28;20025;-90
2021/12/23 13:13:03;;;;;;;5.45;3.70;;;21.70;39.10;;;;;;5053939;28;20025;-87
2021/12/23 13:15:33;;;;;;;12.43;4.10;;;21.80;39.00;;;;;;5055279;28;20482;-88
2021/12/23 13:18:01;;;;;;;4.03;3.28;;;21.80;39.00;;;;;;5053224;28;20124;-89
2021/12/23 13:20:40;;;;;;;4.80;3.40;;;21.80;38.90;;;;;;5054534;28;20120;-87
2021/12/23 13:23:16;;;;;;;6.05;3.33;;;21.80;38.90;;;;;;5053195;28;20371;-88
2021/12/23 13:25:58;;;;;;;5.38;3.33;;;21.80;38.90;;;;;;5053657;28;20033;-87
2021/12/23 13:28:33;;;;;;;5.40;3.53;;;21.80;38.90;;;;;;5053790;28;20127;-89
2021/12/23 13:30:59;;;;;;;7.38;3.33;;;21.90;39.00;;;;;;5053978;28;20494;-89
2021/12/23 13:33:25;;;;;;;5.65;3.90;;;21.80;39.00;;;;;;5054617;28;20052;-89
2021/12/23 13:35:52;;;;;;;5.70;3.88;;;21.80;39.10;;;;;;5053663;28;20382;-89
2021/12/23 13:38:39;;;;;;;3.85;3.10;;;21.80;39.00;;;;;;5054776;28;20021;-89
2021/12/23 13:41:36;;;;;;;5.50;3.38;;;21.80;39.10;;;;;;5053473;28;20029;-89
2021/12/23 13:44:22;;;;;;;3.97;3.17;;;21.80;39.10;;;;;;5052480;28;20036;-89
2021/12/23 13:47:09;;;;;;;6.07;3.35;;;21.70;39.10;;;;;;5053209;28;20028;-89
2021/12/23 13:49:47;;;;;;;6.68;3.80;;;21.70;39.30;;;;;;5054180;28;20698;-88
2021/12/23 13:52:33;;;;;;;7.38;3.63;;;21.70;39.40;;;;;;5053017;28;20029;-89
2021/12/23 13:55:07;;;;;;;4.07;3.25;;;21.70;39.40;;;;;;5052944;28;20522;-88
2021/12/23 13:57:36;;;;;;;4.07;3.40;;;21.60;39.50;;;;;;5054581;28;20044;-87
2021/12/23 14:00:14;;;;;;;4.80;3.53;;;21.60;39.50;;;;;;5053132;28;20052;-89
2021/12/23 14:02:40;;;;;;;5.05;3.40;;;21.60;39.60;;;;;;5053212;28;20056;-89
2021/12/23 14:05:07;;;;;;;5.40;3.55;;;21.50;39.70;;;;;;5052935;28;20471;-87
2021/12/23 14:07:41;;;;;;;4.72;3.47;;;21.50;39.70;;;;;;5054605;28;20100;-87